sensor_id;sensor_type;location;lat;lon;timestamp;P1;durP1;ratioP1;P2;durP2;ratioP2
65289;SDS011;51893;59.754;10.110;2023-03-23T00:01:20;13.60;;;4.80;;
65289;SDS011;51893;59.754;10.110;2023-03-23T00:03:50;12.20;;;4.80;;
65289;SDS011;51893;59.754;10.110;2023-03-23T00:06:19;10.10;;;5.00;;
65289;SDS011;51893;59.754;10.110;2023-03-23T00:08:49;8.20;;;4.90;;
65289;SDS011;51893;59.754;10.110;2023-03-23T00:11:24;10.30;;;4.20;;
65289;SDS011;51893;59.754;10.110;2023-03-23T00:13:56;12.20;;;4.80;;
65289;SDS011;51893;59.754;10.110;2023-03-23T00:16:32;12.30;;;4.20;;
65289;SDS011;51893;59.754;10.110;2023-03-23T00:19:05;6.90;;;3.40;;
65289;SDS011;51893;59.754;10.110;2023-03-23T00:21:41;15.10;;;4.00;;
65289;SDS011;51893;59.754;10.110;2023-03-23T00:24:12;12.30;;;3.90;;
65289;SDS011;51893;59.754;10.110;2023-03-23T00:29:20;13.70;;;3.20;;
65289;SDS011;51893;59.754;10.110;2023-03-23T00:31:51;4.00;;;2.00;;
65289;SDS011;51893;59.754;10.110;2023-03-23T00:34:21;10.90;;;4.10;;
65289;SDS011;51893;59.754;10.110;2023-03-23T00:36:54;10.10;;;4.00;;
65289;SDS011;51893;59.754;10.110;2023-03-23T00:39:24;11.10;;;3.80;;
65289;SDS011;51893;59.754;10.110;2023-03-23T00:41:54;10.60;;;3.80;;
65289;SDS011;51893;59.754;10.110;2023-03-23T00:44:29;7.10;;;3.70;;
65289;SDS011;51893;59.754;10.110;2023-03-23T00:46:59;4.80;;;3.00;;
65289;SDS011;51893;59.754;10.110;2023-03-23T00:49:27;12.40;;;4.00;;
65289;SDS011;51893;59.754;10.110;2023-03-23T00:51:56;11.60;;;4.10;;
65289;SDS011;51893;59.754;10.110;2023-03-23T00:54:25;11.40;;;2.40;;
65289;SDS011;51893;59.754;10.110;2023-03-23T00:56:53;9.60;;;3.80;;
65289;SDS011;51893;59.754;10.110;2023-03-23T00:59:20;7.30;;;2.20;;
65289;SDS011;51893;59.754;10.110;2023-03-23T01:01:49;10.50;;;3.60;;
65289;SDS011;51893;59.754;10.110;2023-03-23T01:04:16;10.00;;;3.50;;
65289;SDS011;51893;59.754;10.110;2023-03-23T01:06:47;5.60;;;2.40;;
65289;SDS011;51893;59.754;10.110;2023-03-23T01:09:17;3.80;;;2.60;;
65289;SDS011;51893;59.754;10.110;2023-03-23T01:11:49;10.50;;;3.30;;
65289;SDS011;51893;59.754;10.110;2023-03-23T01:14:19;12.70;;;3.80;;
65289;SDS011;51893;59.754;10.110;2023-03-23T01:16:46;10.50;;;3.60;;
65289;SDS011;51893;59.754;10.110;2023-03-23T01:19:13;14.30;;;3.20;;
65289;SDS011;51893;59.754;10.110;2023-03-23T01:21:43;7.70;;;3.30;;
65289;SDS011;51893;59.754;10.110;2023-03-23T01:24:10;8.50;;;3.80;;
65289;SDS011;51893;59.754;10.110;2023-03-23T01:26:38;12.50;;;3.20;;
65289;SDS011;51893;59.754;10.110;2023-03-23T01:29:04;6.40;;;3.20;;
65289;SDS011;51893;59.754;10.110;2023-03-23T01:31:34;9.20;;;3.50;;
65289;SDS011;51893;59.754;10.110;2023-03-23T01:34:03;9.30;;;3.00;;
65289;SDS011;51893;59.754;10.110;2023-03-23T01:36:31;10.10;;;4.60;;
65289;SDS011;51893;59.754;10.110;2023-03-23T01:39:00;11.40;;;2.60;;
65289;SDS011;51893;59.754;10.110;2023-03-23T01:41:31;8.10;;;3.00;;
65289;SDS011;51893;59.754;10.110;2023-03-23T01:44:07;10.70;;;2.80;;
65289;SDS011;51893;59.754;10.110;2023-03-23T01:46:54;11.00;;;3.00;;
65289;SDS011;51893;59.754;10.110;2023-03-23T01:49:35;8.50;;;3.20;;
65289;SDS011;51893;59.754;10.110;2023-03-23T01:52:14;1.90;;;1.00;;
65289;SDS011;51893;59.754;10.110;2023-03-23T01:54:54;11.60;;;2.80;;
65289;SDS011;51893;59.754;10.110;2023-03-23T01:57:25;13.90;;;2.20;;
65289;SDS011;51893;59.754;10.110;2023-03-23T01:59:54;7.90;;;2.00;;
65289;SDS011;51893;59.754;10.110;2023-03-23T02:02:27;19.40;;;2.50;;
65289;SDS011;51893;59.754;10.110;2023-03-23T02:04:58;20.60;;;3.80;;
65289;SDS011;51893;59.754;10.110;2023-03-23T02:07:31;14.90;;;2.70;;
65289;SDS011;51893;59.754;10.110;2023-03-23T02:09:59;12.80;;;3.10;;
65289;SDS011;51893;59.754;10.110;2023-03-23T02:12:28;14.50;;;2.50;;
65289;SDS011;51893;59.754;10.110;2023-03-23T02:14:55;13.20;;;2.20;;
65289;SDS011;51893;59.754;10.110;2023-03-23T02:17:28;11.80;;;2.00;;
65289;SDS011;51893;59.754;10.110;2023-03-23T02:20:33;13.10;;;2.10;;
65289;SDS011;51893;59.754;10.110;2023-03-23T02:32:08;10.90;;;2.10;;
65289;SDS011;51893;59.754;10.110;2023-03-23T02:35:07;10.40;;;2.20;;
65289;SDS011;51893;59.754;10.110;2023-03-23T02:37:45;10.70;;;2.70;;
65289;SDS011;51893;59.754;10.110;2023-03-23T02:40:28;8.10;;;2.40;;
65289;SDS011;51893;59.754;10.110;2023-03-23T02:43:02;12.70;;;2.60;;
65289;SDS011;51893;59.754;10.110;2023-03-23T02:45:36;17.40;;;2.70;;
65289;SDS011;51893;59.754;10.110;2023-03-23T02:48:06;10.40;;;2.20;;
65289;SDS011;51893;59.754;10.110;2023-03-23T02:50:35;17.60;;;2.90;;
65289;SDS011;51893;59.754;10.110;2023-03-23T02:53:08;7.10;;;1.90;;
65289;SDS011;51893;59.754;10.110;2023-03-23T02:55:41;8.20;;;3.10;;
65289;SDS011;51893;59.754;10.110;2023-03-23T02:58:14;12.60;;;2.80;;
65289;SDS011;51893;59.754;10.110;2023-03-23T03:00:45;11.50;;;2.30;;
65289;SDS011;51893;59.754;10.110;2023-03-23T03:03:19;12.90;;;2.10;;
65289;SDS011;51893;59.754;10.110;2023-03-23T03:06:10;8.60;;;2.20;;
65289;SDS011;51893;59.754;10.110;2023-03-23T03:12:04;11.20;;;2.20;;
65289;SDS011;51893;59.754;10.110;2023-03-23T03:14:48;6.00;;;1.90;;
65289;SDS011;51893;59.754;10.110;2023-03-23T03:17:25;6.50;;;1.80;;
65289;SDS011;51893;59.754;10.110;2023-03-23T03:20:01;10.60;;;2.30;;
65289;SDS011;51893;59.754;10.110;2023-03-23T03:22:35;13.20;;;3.00;;
65289;SDS011;51893;59.754;10.110;2023-03-23T03:25:06;9.50;;;2.20;;
65289;SDS011;51893;59.754;10.110;2023-03-23T03:27:34;12.80;;;2.30;;
65289;SDS011;51893;59.754;10.110;2023-03-23T03:30:05;9.90;;;2.20;;
65289;SDS011;51893;59.754;10.110;2023-03-23T03:35:15;12.10;;;2.30;;
65289;SDS011;51893;59.754;10.110;2023-03-23T03:37:43;12.70;;;2.80;;
65289;SDS011;51893;59.754;10.110;2023-03-23T03:40:17;13.60;;;2.00;;
65289;SDS011;51893;59.754;10.110;2023-03-23T03:42:46;12.00;;;2.30;;
65289;SDS011;51893;59.754;10.110;2023-03-23T03:45:19;6.50;;;1.60;;
65289;SDS011;51893;59.754;10.110;2023-03-23T03:47:47;15.80;;;2.80;;
65289;SDS011;51893;59.754;10.110;2023-03-23T03:50:13;17.60;;;2.70;;
65289;SDS011;51893;59.754;10.110;2023-03-23T03:52:43;15.00;;;2.60;;
65289;SDS011;51893;59.754;10.110;2023-03-23T03:55:10;19.50;;;3.00;;
65289;SDS011;51893;59.754;10.110;2023-03-23T03:57:38;15.80;;;2.80;;
65289;SDS011;51893;59.754;10.110;2023-03-23T04:00:07;12.60;;;2.50;;
65289;SDS011;51893;59.754;10.110;2023-03-23T04:02:43;15.70;;;2.80;;
65289;SDS011;51893;59.754;10.110;2023-03-23T04:05:18;13.20;;;3.00;;
65289;SDS011;51893;59.754;10.110;2023-03-23T04:07:45;15.80;;;2.80;;
65289;SDS011;51893;59.754;10.110;2023-03-23T04:10:17;16.40;;;3.70;;
65289;SDS011;51893;59.754;10.110;2023-03-23T04:12:48;23.20;;;3.00;;
65289;SDS011;51893;59.754;10.110;2023-03-23T04:15:16;12.00;;;2.80;;
65289;SDS011;51893;59.754;10.110;2023-03-23T04:17:43;14.20;;;2.20;;
65289;SDS011;51893;59.754;10.110;2023-03-23T04:20:10;13.00;;;2.60;;
65289;SDS011;51893;59.754;10.110;2023-03-23T04:22:45;8.40;;;2.40;;
65289;SDS011;51893;59.754;10.110;2023-03-23T04:25:18;14.20;;;2.50;;
65289;SDS011;51893;59.754;10.110;2023-03-23T04:27:48;15.30;;;3.00;;
65289;SDS011;51893;59.754;10.110;2023-03-23T04:30:21;16.70;;;3.00;;
65289;SDS011;51893;59.754;10.110;2023-03-23T04:32:50;16.00;;;3.20;;
65289;SDS011;51893;59.754;10.110;2023-03-23T04:35:25;17.30;;;3.40;;
65289;SDS011;51893;59.754;10.110;2023-03-23T04:37:53;9.80;;;2.40;;
65289;SDS011;51893;59.754;10.110;2023-03-23T04:40:22;18.80;;;3.10;;
65289;SDS011;51893;59.754;10.110;2023-03-23T04:42:49;20.80;;;4.10;;
65289;SDS011;51893;59.754;10.110;2023-03-23T04:45:20;13.70;;;3.80;;
65289;SDS011;51893;59.754;10.110;2023-03-23T04:47:50;23.00;;;4.50;;
65289;SDS011;51893;59.754;10.110;2023-03-23T04:50:28;15.00;;;3.20;;
65289;SDS011;51893;59.754;10.110;2023-03-23T04:53:01;11.50;;;3.40;;
65289;SDS011;51893;59.754;10.110;2023-03-23T04:55:32;15.20;;;2.90;;
65289;SDS011;51893;59.754;10.110;2023-03-23T04:58:08;13.00;;;2.90;;
65289;SDS011;51893;59.754;10.110;2023-03-23T05:00:41;10.30;;;2.80;;
65289;SDS011;51893;59.754;10.110;2023-03-23T05:03:19;12.90;;;3.60;;
65289;SDS011;51893;59.754;10.110;2023-03-23T05:05:47;11.70;;;3.30;;
65289;SDS011;51893;59.754;10.110;2023-03-23T05:08:20;14.70;;;2.80;;
65289;SDS011;51893;59.754;10.110;2023-03-23T05:10:53;9.20;;;3.40;;
65289;SDS011;51893;59.754;10.110;2023-03-23T05:13:21;7.90;;;2.90;;
65289;SDS011;51893;59.754;10.110;2023-03-23T05:15:49;11.60;;;2.70;;
65289;SDS011;51893;59.754;10.110;2023-03-23T05:18:16;17.20;;;2.50;;
65289;SDS011;51893;59.754;10.110;2023-03-23T05:20:43;15.20;;;3.10;;
65289;SDS011;51893;59.754;10.110;2023-03-23T05:23:13;19.40;;;2.70;;
65289;SDS011;51893;59.754;10.110;2023-03-23T05:25:40;10.60;;;2.30;;
65289;SDS011;51893;59.754;10.110;2023-03-23T05:28:09;10.20;;;2.30;;
65289;SDS011;51893;59.754;10.110;2023-03-23T05:30:39;10.90;;;3.10;;
65289;SDS011;51893;59.754;10.110;2023-03-23T05:33:06;11.20;;;2.40;;
65289;SDS011;51893;59.754;10.110;2023-03-23T05:35:33;11.50;;;2.80;;
65289;SDS011;51893;59.754;10.110;2023-03-23T05:38:00;13.00;;;3.50;;
65289;SDS011;51893;59.754;10.110;2023-03-23T05:40:28;17.30;;;3.50;;
65289;SDS011;51893;59.754;10.110;2023-03-23T05:42:55;14.20;;;2.40;;
65289;SDS011;51893;59.754;10.110;2023-03-23T05:45:25;13.60;;;2.70;;
65289;SDS011;51893;59.754;10.110;2023-03-23T05:47:53;12.70;;;3.10;;
65289;SDS011;51893;59.754;10.110;2023-03-23T05:50:20;13.60;;;3.40;;
65289;SDS011;51893;59.754;10.110;2023-03-23T05:52:47;16.60;;;3.40;;
65289;SDS011;51893;59.754;10.110;2023-03-23T05:55:14;15.40;;;3.50;;
65289;SDS011;51893;59.754;10.110;2023-03-23T05:57:41;14.20;;;3.20;;
65289;SDS011;51893;59.754;10.110;2023-03-23T06:00:10;15.20;;;2.70;;
65289;SDS011;51893;59.754;10.110;2023-03-23T06:02:47;11.60;;;2.50;;
65289;SDS011;51893;59.754;10.110;2023-03-23T06:05:16;19.10;;;3.10;;
65289;SDS011;51893;59.754;10.110;2023-03-23T06:07:43;4.30;;;1.90;;
65289;SDS011;51893;59.754;10.110;2023-03-23T06:10:10;10.80;;;2.00;;
65289;SDS011;51893;59.754;10.110;2023-03-23T06:12:39;11.80;;;2.10;;
65289;SDS011;51893;59.754;10.110;2023-03-23T06:15:07;17.90;;;2.70;;
65289;SDS011;51893;59.754;10.110;2023-03-23T06:17:35;16.90;;;3.30;;
65289;SDS011;51893;59.754;10.110;2023-03-23T06:20:04;15.40;;;2.30;;
65289;SDS011;51893;59.754;10.110;2023-03-23T06:22:37;14.90;;;2.90;;
65289;SDS011;51893;59.754;10.110;2023-03-23T06:25:06;8.30;;;1.80;;
65289;SDS011;51893;59.754;10.110;2023-03-23T06:27:35;8.50;;;2.30;;
65289;SDS011;51893;59.754;10.110;2023-03-23T06:30:03;13.80;;;2.60;;
65289;SDS011;51893;59.754;10.110;2023-03-23T06:32:37;11.30;;;2.70;;
65289;SDS011;51893;59.754;10.110;2023-03-23T06:35:05;11.10;;;2.70;;
65289;SDS011;51893;59.754;10.110;2023-03-23T06:37:36;19.70;;;3.50;;
65289;SDS011;51893;59.754;10.110;2023-03-23T06:40:05;6.90;;;2.00;;
65289;SDS011;51893;59.754;10.110;2023-03-23T06:42:34;13.10;;;2.90;;
65289;SDS011;51893;59.754;10.110;2023-03-23T06:45:05;18.60;;;2.80;;
65289;SDS011;51893;59.754;10.110;2023-03-23T06:47:34;11.70;;;1.90;;
65289;SDS011;51893;59.754;10.110;2023-03-23T06:50:01;9.40;;;2.10;;
65289;SDS011;51893;59.754;10.110;2023-03-23T06:52:28;12.10;;;2.60;;
65289;SDS011;51893;59.754;10.110;2023-03-23T06:54:55;7.70;;;1.90;;
65289;SDS011;51893;59.754;10.110;2023-03-23T06:57:22;12.00;;;3.10;;
65289;SDS011;51893;59.754;10.110;2023-03-23T06:59:49;17.20;;;2.80;;
65289;SDS011;51893;59.754;10.110;2023-03-23T07:02:16;16.80;;;3.20;;
65289;SDS011;51893;59.754;10.110;2023-03-23T07:04:45;14.60;;;3.40;;
65289;SDS011;51893;59.754;10.110;2023-03-23T07:07:12;14.60;;;2.90;;
65289;SDS011;51893;59.754;10.110;2023-03-23T07:09:40;10.30;;;2.70;;
65289;SDS011;51893;59.754;10.110;2023-03-23T07:12:08;7.50;;;1.80;;
65289;SDS011;51893;59.754;10.110;2023-03-23T07:14:36;13.30;;;2.80;;
65289;SDS011;51893;59.754;10.110;2023-03-23T07:17:03;14.30;;;2.80;;
65289;SDS011;51893;59.754;10.110;2023-03-23T07:19:30;12.10;;;2.90;;
65289;SDS011;51893;59.754;10.110;2023-03-23T07:21:58;12.00;;;2.20;;
65289;SDS011;51893;59.754;10.110;2023-03-23T07:24:27;10.70;;;2.80;;
65289;SDS011;51893;59.754;10.110;2023-03-23T07:26:54;10.20;;;2.20;;
65289;SDS011;51893;59.754;10.110;2023-03-23T07:29:22;10.10;;;2.60;;
65289;SDS011;51893;59.754;10.110;2023-03-23T07:31:49;16.20;;;2.80;;
65289;SDS011;51893;59.754;10.110;2023-03-23T07:34:17;20.10;;;3.30;;
65289;SDS011;51893;59.754;10.110;2023-03-23T07:36:45;14.10;;;2.60;;
65289;SDS011;51893;59.754;10.110;2023-03-23T07:39:13;14.00;;;2.50;;
65289;SDS011;51893;59.754;10.110;2023-03-23T07:41:40;13.30;;;3.00;;
65289;SDS011;51893;59.754;10.110;2023-03-23T07:44:07;11.50;;;2.70;;
65289;SDS011;51893;59.754;10.110;2023-03-23T07:46:35;18.60;;;3.30;;
65289;SDS011;51893;59.754;10.110;2023-03-23T07:49:04;12.00;;;2.30;;
65289;SDS011;51893;59.754;10.110;2023-03-23T07:51:32;8.60;;;2.20;;
65289;SDS011;51893;59.754;10.110;2023-03-23T07:54:03;16.80;;;2.90;;
65289;SDS011;51893;59.754;10.110;2023-03-23T07:56:32;10.70;;;2.90;;
65289;SDS011;51893;59.754;10.110;2023-03-23T07:58:58;12.70;;;2.40;;
65289;SDS011;51893;59.754;10.110;2023-03-23T08:01:26;20.70;;;3.60;;
65289;SDS011;51893;59.754;10.110;2023-03-23T08:03:53;18.70;;;3.30;;
65289;SDS011;51893;59.754;10.110;2023-03-23T08:06:24;20.20;;;3.30;;
65289;SDS011;51893;59.754;10.110;2023-03-23T08:08:51;17.80;;;4.40;;
65289;SDS011;51893;59.754;10.110;2023-03-23T08:11:20;16.80;;;3.10;;
65289;SDS011;51893;59.754;10.110;2023-03-23T08:13:49;16.20;;;3.90;;
65289;SDS011;51893;59.754;10.110;2023-03-23T08:16:16;17.30;;;3.70;;
65289;SDS011;51893;59.754;10.110;2023-03-23T08:18:45;17.50;;;3.30;;
65289;SDS011;51893;59.754;10.110;2023-03-23T08:21:13;19.30;;;3.60;;
65289;SDS011;51893;59.754;10.110;2023-03-23T08:23:40;6.50;;;2.50;;
65289;SDS011;51893;59.754;10.110;2023-03-23T08:26:08;12.90;;;3.20;;
65289;SDS011;51893;59.754;10.110;2023-03-23T08:28:37;17.90;;;5.30;;
65289;SDS011;51893;59.754;10.110;2023-03-23T08:31:08;15.50;;;3.60;;
65289;SDS011;51893;59.754;10.110;2023-03-23T08:33:38;10.00;;;3.10;;
65289;SDS011;51893;59.754;10.110;2023-03-23T08:36:08;15.30;;;3.40;;
65289;SDS011;51893;59.754;10.110;2023-03-23T08:38:36;14.80;;;3.60;;
65289;SDS011;51893;59.754;10.110;2023-03-23T08:41:06;11.90;;;2.30;;
65289;SDS011;51893;59.754;10.110;2023-03-23T08:43:36;9.70;;;2.50;;
65289;SDS011;51893;59.754;10.110;2023-03-23T08:46:04;11.90;;;3.10;;
65289;SDS011;51893;59.754;10.110;2023-03-23T08:48:37;9.00;;;2.20;;
65289;SDS011;51893;59.754;10.110;2023-03-23T08:51:06;19.30;;;3.30;;
65289;SDS011;51893;59.754;10.110;2023-03-23T08:53:34;18.40;;;3.00;;
65289;SDS011;51893;59.754;10.110;2023-03-23T08:56:09;18.00;;;3.20;;
65289;SDS011;51893;59.754;10.110;2023-03-23T08:58:40;14.40;;;2.90;;
65289;SDS011;51893;59.754;10.110;2023-03-23T09:01:07;22.50;;;4.70;;
65289;SDS011;51893;59.754;10.110;2023-03-23T09:03:37;22.50;;;4.40;;
65289;SDS011;51893;59.754;10.110;2023-03-23T09:06:08;10.00;;;2.40;;
65289;SDS011;51893;59.754;10.110;2023-03-23T09:08:38;15.40;;;2.50;;
65289;SDS011;51893;59.754;10.110;2023-03-23T09:11:08;19.60;;;4.10;;
65289;SDS011;51893;59.754;10.110;2023-03-23T09:13:37;26.60;;;3.90;;
65289;SDS011;51893;59.754;10.110;2023-03-23T09:16:08;23.50;;;3.40;;
65289;SDS011;51893;59.754;10.110;2023-03-23T09:18:37;15.60;;;3.10;;
65289;SDS011;51893;59.754;10.110;2023-03-23T09:21:07;7.20;;;2.40;;
65289;SDS011;51893;59.754;10.110;2023-03-23T09:23:34;21.50;;;3.40;;
65289;SDS011;51893;59.754;10.110;2023-03-23T09:26:03;11.40;;;3.60;;
65289;SDS011;51893;59.754;10.110;2023-03-23T09:28:31;16.60;;;3.50;;
65289;SDS011;51893;59.754;10.110;2023-03-23T09:30:59;15.10;;;4.10;;
65289;SDS011;51893;59.754;10.110;2023-03-23T09:33:28;16.20;;;3.00;;
65289;SDS011;51893;59.754;10.110;2023-03-23T09:35:59;10.00;;;3.00;;
65289;SDS011;51893;59.754;10.110;2023-03-23T09:38:29;12.60;;;3.50;;
65289;SDS011;51893;59.754;10.110;2023-03-23T09:47:23;10.60;;;2.50;;
65289;SDS011;51893;59.754;10.110;2023-03-23T09:50:15;5.60;;;1.80;;
65289;SDS011;51893;59.754;10.110;2023-03-23T09:55:22;12.50;;;2.80;;
65289;SDS011;51893;59.754;10.110;2023-03-23T09:58:02;3.50;;;1.80;;
65289;SDS011;51893;59.754;10.110;2023-03-23T10:01:02;14.70;;;3.10;;
65289;SDS011;51893;59.754;10.110;2023-03-23T10:03:37;5.30;;;2.10;;
65289;SDS011;51893;59.754;10.110;2023-03-23T10:06:11;8.60;;;2.20;;
65289;SDS011;51893;59.754;10.110;2023-03-23T10:09:11;10.30;;;2.20;;
65289;SDS011;51893;59.754;10.110;2023-03-23T10:20:53;8.10;;;2.10;;
65289;SDS011;51893;59.754;10.110;2023-03-23T10:23:46;4.30;;;1.90;;
65289;SDS011;51893;59.754;10.110;2023-03-23T10:28:54;5.90;;;1.70;;
65289;SDS011;51893;59.754;10.110;2023-03-23T10:31:55;4.60;;;2.20;;
65289;SDS011;51893;59.754;10.110;2023-03-23T10:34:39;5.40;;;1.90;;
65289;SDS011;51893;59.754;10.110;2023-03-23T10:37:15;2.40;;;1.30;;
65289;SDS011;51893;59.754;10.110;2023-03-23T10:39:50;3.40;;;1.60;;
65289;SDS011;51893;59.754;10.110;2023-03-23T10:42:31;5.60;;;1.70;;
65289;SDS011;51893;59.754;10.110;2023-03-23T10:45:17;5.00;;;1.60;;
65289;SDS011;51893;59.754;10.110;2023-03-23T10:48:35;3.30;;;1.30;;
65289;SDS011;51893;59.754;10.110;2023-03-23T10:51:05;3.30;;;1.40;;
65289;SDS011;51893;59.754;10.110;2023-03-23T10:53:44;3.40;;;1.60;;
65289;SDS011;51893;59.754;10.110;2023-03-23T10:56:29;3.20;;;1.50;;
65289;SDS011;51893;59.754;10.110;2023-03-23T10:59:17;2.90;;;1.20;;
65289;SDS011;51893;59.754;10.110;2023-03-23T11:01:54;2.70;;;1.40;;
65289;SDS011;51893;59.754;10.110;2023-03-23T11:04:23;2.80;;;1.50;;
65289;SDS011;51893;59.754;10.110;2023-03-23T11:06:57;2.40;;;1.50;;
65289;SDS011;51893;59.754;10.110;2023-03-23T11:09:38;1.90;;;1.40;;
65289;SDS011;51893;59.754;10.110;2023-03-23T11:12:17;2.00;;;1.30;;
65289;SDS011;51893;59.754;10.110;2023-03-23T11:14:46;2.80;;;1.20;;
65289;SDS011;51893;59.754;10.110;2023-03-23T11:17:27;2.00;;;1.20;;
65289;SDS011;51893;59.754;10.110;2023-03-23T11:19:55;1.20;;;1.00;;
65289;SDS011;51893;59.754;10.110;2023-03-23T11:22:32;3.00;;;1.10;;
65289;SDS011;51893;59.754;10.110;2023-03-23T11:25:02;2.30;;;1.00;;
65289;SDS011;51893;59.754;10.110;2023-03-23T11:27:32;2.70;;;1.00;;
65289;SDS011;51893;59.754;10.110;2023-03-23T11:30:23;1.20;;;1.00;;
65289;SDS011;51893;59.754;10.110;2023-03-23T11:33:00;4.70;;;1.70;;
65289;SDS011;51893;59.754;10.110;2023-03-23T11:35:29;3.00;;;1.40;;
65289;SDS011;51893;59.754;10.110;2023-03-23T11:37:58;1.80;;;1.10;;
65289;SDS011;51893;59.754;10.110;2023-03-23T11:40:29;4.50;;;1.40;;
65289;SDS011;51893;59.754;10.110;2023-03-23T11:43:09;2.30;;;1.10;;
65289;SDS011;51893;59.754;10.110;2023-03-23T11:45:48;1.90;;;1.30;;
65289;SDS011;51893;59.754;10.110;2023-03-23T11:48:38;1.70;;;1.30;;
65289;SDS011;51893;59.754;10.110;2023-03-23T11:51:23;3.10;;;1.40;;
65289;SDS011;51893;59.754;10.110;2023-03-23T11:54:34;4.00;;;1.70;;
65289;SDS011;51893;59.754;10.110;2023-03-23T11:57:11;2.50;;;2.00;;
65289;SDS011;51893;59.754;10.110;2023-03-23T11:59:40;2.00;;;1.40;;
65289;SDS011;51893;59.754;10.110;2023-03-23T12:02:28;4.90;;;1.80;;
65289;SDS011;51893;59.754;10.110;2023-03-23T12:05:34;2.40;;;1.30;;
65289;SDS011;51893;59.754;10.110;2023-03-23T12:11:15;2.20;;;1.40;;
65289;SDS011;51893;59.754;10.110;2023-03-23T12:14:15;2.00;;;1.20;;
65289;SDS011;51893;59.754;10.110;2023-03-23T12:17:03;2.00;;;1.40;;
65289;SDS011;51893;59.754;10.110;2023-03-23T12:28:21;0.70;;;0.60;;
65289;SDS011;51893;59.754;10.110;2023-03-23T12:31:04;0.70;;;0.70;;
65289;SDS011;51893;59.754;10.110;2023-03-23T12:36:57;0.80;;;0.80;;
65289;SDS011;51893;59.754;10.110;2023-03-23T12:39:38;0.80;;;0.80;;
65289;SDS011;51893;59.754;10.110;2023-03-23T12:48:18;0.50;;;0.40;;
65289;SDS011;51893;59.754;10.110;2023-03-23T13:00:06;1.40;;;0.60;;
65289;SDS011;51893;59.754;10.110;2023-03-23T13:03:14;0.80;;;0.80;;
65289;SDS011;51893;59.754;10.110;2023-03-23T13:05:50;1.40;;;1.10;;
65289;SDS011;51893;59.754;10.110;2023-03-23T13:08:47;0.90;;;0.90;;
65289;SDS011;51893;59.754;10.110;2023-03-23T13:11:36;3.60;;;0.90;;
65289;SDS011;51893;59.754;10.110;2023-03-23T13:17:46;0.90;;;0.90;;
65289;SDS011;51893;59.754;10.110;2023-03-23T13:20:45;0.90;;;0.90;;
65289;SDS011;51893;59.754;10.110;2023-03-23T13:23:23;1.80;;;0.80;;
65289;SDS011;51893;59.754;10.110;2023-03-23T13:28:29;1.50;;;0.80;;
65289;SDS011;51893;59.754;10.110;2023-03-23T13:33:39;2.70;;;1.10;;
65289;SDS011;51893;59.754;10.110;2023-03-23T13:36:13;1.80;;;1.50;;
65289;SDS011;51893;59.754;10.110;2023-03-23T13:38:52;1.90;;;1.80;;
65289;SDS011;51893;59.754;10.110;2023-03-23T13:41:22;1.30;;;1.20;;
65289;SDS011;51893;59.754;10.110;2023-03-23T13:43:49;1.10;;;1.00;;
65289;SDS011;51893;59.754;10.110;2023-03-23T13:48:46;2.60;;;1.50;;
65289;SDS011;51893;59.754;10.110;2023-03-23T13:51:35;2.90;;;1.70;;
65289;SDS011;51893;59.754;10.110;2023-03-23T13:57:02;1.60;;;1.20;;
65289;SDS011;51893;59.754;10.110;2023-03-23T14:02:32;2.40;;;1.60;;
65289;SDS011;51893;59.754;10.110;2023-03-23T14:08:24;1.90;;;1.70;;
65289;SDS011;51893;59.754;10.110;2023-03-23T14:11:16;2.10;;;1.50;;
65289;SDS011;51893;59.754;10.110;2023-03-23T14:16:41;4.30;;;1.80;;
65289;SDS011;51893;59.754;10.110;2023-03-23T14:21:53;2.10;;;1.60;;
65289;SDS011;51893;59.754;10.110;2023-03-23T14:24:25;2.00;;;1.80;;
65289;SDS011;51893;59.754;10.110;2023-03-23T14:29:36;5.80;;;2.80;;
65289;SDS011;51893;59.754;10.110;2023-03-23T14:32:06;4.60;;;2.20;;
65289;SDS011;51893;59.754;10.110;2023-03-23T14:34:37;3.00;;;2.30;;
65289;SDS011;51893;59.754;10.110;2023-03-23T14:37:04;3.10;;;2.20;;
65289;SDS011;51893;59.754;10.110;2023-03-23T14:39:37;3.80;;;3.20;;
65289;SDS011;51893;59.754;10.110;2023-03-23T14:42:06;4.70;;;2.70;;
65289;SDS011;51893;59.754;10.110;2023-03-23T14:44:54;3.20;;;2.20;;
65289;SDS011;51893;59.754;10.110;2023-03-23T14:47:27;3.20;;;2.20;;
65289;SDS011;51893;59.754;10.110;2023-03-23T14:49:59;2.70;;;2.30;;
65289;SDS011;51893;59.754;10.110;2023-03-23T14:52:32;2.20;;;1.80;;
65289;SDS011;51893;59.754;10.110;2023-03-23T14:55:31;2.20;;;1.60;;
65289;SDS011;51893;59.754;10.110;2023-03-23T14:58:08;3.10;;;2.00;;
65289;SDS011;51893;59.754;10.110;2023-03-23T15:01:07;3.90;;;3.10;;
65289;SDS011;51893;59.754;10.110;2023-03-23T15:06:58;5.00;;;2.50;;
65289;SDS011;51893;59.754;10.110;2023-03-23T15:09:31;5.20;;;2.50;;
65289;SDS011;51893;59.754;10.110;2023-03-23T15:12:01;4.10;;;2.10;;
65289;SDS011;51893;59.754;10.110;2023-03-23T15:14:45;2.70;;;2.20;;
65289;SDS011;51893;59.754;10.110;2023-03-23T15:17:26;4.30;;;3.30;;
65289;SDS011;51893;59.754;10.110;2023-03-23T15:19:56;4.00;;;3.30;;
65289;SDS011;51893;59.754;10.110;2023-03-23T15:22:30;11.50;;;4.40;;
65289;SDS011;51893;59.754;10.110;2023-03-23T15:28:14;4.90;;;3.40;;
65289;SDS011;51893;59.754;10.110;2023-03-23T15:33:16;4.30;;;3.70;;
65289;SDS011;51893;59.754;10.110;2023-03-23T15:35:48;3.50;;;3.20;;
65289;SDS011;51893;59.754;10.110;2023-03-23T15:38:33;6.80;;;3.90;;
65289;SDS011;51893;59.754;10.110;2023-03-23T15:41:04;2.50;;;2.30;;
65289;SDS011;51893;59.754;10.110;2023-03-23T15:43:36;3.30;;;2.70;;
65289;SDS011;51893;59.754;10.110;2023-03-23T15:51:23;2.80;;;2.20;;
65289;SDS011;51893;59.754;10.110;2023-03-23T15:53:54;4.20;;;3.20;;
65289;SDS011;51893;59.754;10.110;2023-03-23T15:56:22;4.10;;;2.90;;
65289;SDS011;51893;59.754;10.110;2023-03-23T15:58:51;5.40;;;3.00;;
65289;SDS011;51893;59.754;10.110;2023-03-23T16:01:26;3.40;;;2.80;;
65289;SDS011;51893;59.754;10.110;2023-03-23T16:03:59;2.70;;;2.30;;
65289;SDS011;51893;59.754;10.110;2023-03-23T16:06:33;4.90;;;3.00;;
65289;SDS011;51893;59.754;10.110;2023-03-23T16:09:05;3.00;;;2.50;;
65289;SDS011;51893;59.754;10.110;2023-03-23T16:11:34;2.60;;;2.30;;
65289;SDS011;51893;59.754;10.110;2023-03-23T16:14:02;2.90;;;2.70;;
65289;SDS011;51893;59.754;10.110;2023-03-23T16:19:08;5.50;;;3.60;;
65289;SDS011;51893;59.754;10.110;2023-03-23T16:21:39;6.40;;;5.40;;
65289;SDS011;51893;59.754;10.110;2023-03-23T16:24:10;5.70;;;4.70;;
65289;SDS011;51893;59.754;10.110;2023-03-23T16:26:38;6.60;;;3.90;;
65289;SDS011;51893;59.754;10.110;2023-03-23T16:29:12;5.00;;;3.40;;
65289;SDS011;51893;59.754;10.110;2023-03-23T16:32:02;3.00;;;2.70;;
65289;SDS011;51893;59.754;10.110;2023-03-23T16:34:30;4.00;;;2.90;;
65289;SDS011;51893;59.754;10.110;2023-03-23T16:37:00;5.00;;;3.60;;
65289;SDS011;51893;59.754;10.110;2023-03-23T16:39:28;4.30;;;3.50;;
65289;SDS011;51893;59.754;10.110;2023-03-23T16:41:56;4.00;;;2.80;;
65289;SDS011;51893;59.754;10.110;2023-03-23T16:44:24;4.40;;;2.60;;
65289;SDS011;51893;59.754;10.110;2023-03-23T16:46:52;4.10;;;3.30;;
65289;SDS011;51893;59.754;10.110;2023-03-23T16:49:20;7.30;;;4.70;;
65289;SDS011;51893;59.754;10.110;2023-03-23T16:51:49;10.40;;;5.50;;
65289;SDS011;51893;59.754;10.110;2023-03-23T16:54:17;9.30;;;5.00;;
65289;SDS011;51893;59.754;10.110;2023-03-23T16:56:45;10.30;;;5.00;;